Terminal Aerodrome Forecast
Issued by NWS

Home | Current Version | Previous Version | Text Only | Print | Product List | Glossary On
Versions: 1 2 3 4 5 6 7 8 9 10 11 12 13 14 15
000
FTUS43 KMQT 261200 AAA
TAFSAW
TAF AMD
KSAW 261241Z 2613/2712 20007KT P6SM OVC015
     FM261500 34009KT P6SM BKN040
     FM262100 02010KT P6SM SCT050
     FM270100 02004KT P6SM SCT100
     FM270500 VRB03KT 5SM -SHRA BR BKN025
      AMD LTD TO CLD VIS AND WIND 2702/2710=

USA.gov is the U.S. government's official web portal to all federal, state and local government web resources and services.